sensor_id;sensor_type;location;lat;lon;timestamp;temperature;humidity
19906;DHT22;10115;50.906;4.438;2022-07-23T00:02:00;16.90;99.90
19906;DHT22;10115;50.906;4.438;2022-07-23T00:04:25;16.90;99.90
19906;DHT22;10115;50.906;4.438;2022-07-23T00:06:51;16.90;99.90
19906;DHT22;10115;50.906;4.438;2022-07-23T00:09:16;16.80;99.90
19906;DHT22;10115;50.906;4.438;2022-07-23T00:11:42;16.60;99.90
19906;DHT22;10115;50.906;4.438;2022-07-23T00:14:08;16.60;99.90
19906;DHT22;10115;50.906;4.438;2022-07-23T00:16:33;16.60;99.90
19906;DHT22;10115;50.906;4.438;2022-07-23T00:18:59;16.50;99.90
19906;DHT22;10115;50.906;4.438;2022-07-23T00:21:26;16.60;99.90
19906;DHT22;10115;50.906;4.438;2022-07-23T00:23:52;16.50;99.90
19906;DHT22;10115;50.906;4.438;2022-07-23T00:26:18;16.50;99.90
19906;DHT22;10115;50.906;4.438;2022-07-23T00:28:43;16.40;99.90
19906;DHT22;10115;50.906;4.438;2022-07-23T00:31:09;16.40;99.90
19906;DHT22;10115;50.906;4.438;2022-07-23T00:33:35;16.40;99.90
19906;DHT22;10115;50.906;4.438;2022-07-23T00:36:01;16.60;99.90
19906;DHT22;10115;50.906;4.438;2022-07-23T00:38:26;16.50;99.90
19906;DHT22;10115;50.906;4.438;2022-07-23T00:40:52;16.50;99.90
19906;DHT22;10115;50.906;4.438;2022-07-23T00:43:20;16.40;99.90
19906;DHT22;10115;50.906;4.438;2022-07-23T00:45:47;16.40;99.90
19906;DHT22;10115;50.906;4.438;2022-07-23T00:48:13;16.40;99.90
19906;DHT22;10115;50.906;4.438;2022-07-23T00:50:38;16.40;99.90
19906;DHT22;10115;50.906;4.438;2022-07-23T00:53:05;16.50;99.90
19906;DHT22;10115;50.906;4.438;2022-07-23T00:55:31;16.60;99.90
19906;DHT22;10115;50.906;4.438;2022-07-23T00:57:57;16.60;99.90
19906;DHT22;10115;50.906;4.438;2022-07-23T01:00:23;16.50;99.90
19906;DHT22;10115;50.906;4.438;2022-07-23T01:02:49;16.50;99.90
19906;DHT22;10115;50.906;4.438;2022-07-23T01:05:15;16.30;99.90
19906;DHT22;10115;50.906;4.438;2022-07-23T01:07:43;16.20;99.90
19906;DHT22;10115;50.906;4.438;2022-07-23T01:10:09;16.20;99.90
19906;DHT22;10115;50.906;4.438;2022-07-23T01:12:53;16.30;99.90
19906;DHT22;10115;50.906;4.438;2022-07-23T01:15:19;16.20;99.90
19906;DHT22;10115;50.906;4.438;2022-07-23T01:17:44;16.20;99.90
19906;DHT22;10115;50.906;4.438;2022-07-23T01:20:10;16.20;99.90
19906;DHT22;10115;50.906;4.438;2022-07-23T01:22:36;16.20;99.90
19906;DHT22;10115;50.906;4.438;2022-07-23T01:25:01;16.30;99.90
19906;DHT22;10115;50.906;4.438;2022-07-23T01:27:27;16.20;99.90
19906;DHT22;10115;50.906;4.438;2022-07-23T01:29:54;16.30;99.90
19906;DHT22;10115;50.906;4.438;2022-07-23T01:32:20;16.20;99.90
19906;DHT22;10115;50.906;4.438;2022-07-23T01:34:46;16.30;99.90
19906;DHT22;10115;50.906;4.438;2022-07-23T01:37:11;16.20;99.90
19906;DHT22;10115;50.906;4.438;2022-07-23T01:39:37;16.20;99.90
19906;DHT22;10115;50.906;4.438;2022-07-23T01:42:03;16.20;99.90
19906;DHT22;10115;50.906;4.438;2022-07-23T01:44:28;16.10;99.90
19906;DHT22;10115;50.906;4.438;2022-07-23T01:46:55;16.10;99.90
19906;DHT22;10115;50.906;4.438;2022-07-23T01:49:21;16.10;99.90
19906;DHT22;10115;50.906;4.438;2022-07-23T01:51:47;15.90;99.90
19906;DHT22;10115;50.906;4.438;2022-07-23T01:54:28;15.80;99.90
19906;DHT22;10115;50.906;4.438;2022-07-23T01:56:55;15.80;99.90
19906;DHT22;10115;50.906;4.438;2022-07-23T01:59:21;15.80;99.90
19906;DHT22;10115;50.906;4.438;2022-07-23T02:01:47;15.80;99.90
19906;DHT22;10115;50.906;4.438;2022-07-23T02:04:16;15.80;99.90
19906;DHT22;10115;50.906;4.438;2022-07-23T02:06:42;15.90;99.90
19906;DHT22;10115;50.906;4.438;2022-07-23T02:09:08;15.90;99.90
19906;DHT22;10115;50.906;4.438;2022-07-23T02:11:33;15.80;99.90
19906;DHT22;10115;50.906;4.438;2022-07-23T02:13:59;15.80;99.90
19906;DHT22;10115;50.906;4.438;2022-07-23T02:16:25;15.90;99.90
19906;DHT22;10115;50.906;4.438;2022-07-23T02:18:50;15.80;99.90
19906;DHT22;10115;50.906;4.438;2022-07-23T02:21:16;15.60;99.90
19906;DHT22;10115;50.906;4.438;2022-07-23T02:23:41;15.50;99.90
19906;DHT22;10115;50.906;4.438;2022-07-23T02:26:07;15.50;99.90
19906;DHT22;10115;50.906;4.438;2022-07-23T02:28:33;15.40;99.90
19906;DHT22;10115;50.906;4.438;2022-07-23T02:30:58;15.40;99.90
19906;DHT22;10115;50.906;4.438;2022-07-23T02:33:24;15.50;99.90
19906;DHT22;10115;50.906;4.438;2022-07-23T02:35:50;15.40;99.90
19906;DHT22;10115;50.906;4.438;2022-07-23T02:38:16;15.40;99.90
19906;DHT22;10115;50.906;4.438;2022-07-23T02:40:42;15.50;99.90
19906;DHT22;10115;50.906;4.438;2022-07-23T02:43:07;15.50;99.90
19906;DHT22;10115;50.906;4.438;2022-07-23T02:45:33;15.50;99.90
19906;DHT22;10115;50.906;4.438;2022-07-23T02:47:59;15.40;99.90
19906;DHT22;10115;50.906;4.438;2022-07-23T02:50:24;15.40;99.90
19906;DHT22;10115;50.906;4.438;2022-07-23T02:52:50;15.30;99.90
19906;DHT22;10115;50.906;4.438;2022-07-23T02:55:15;15.10;99.90
19906;DHT22;10115;50.906;4.438;2022-07-23T02:57:41;15.10;99.90
19906;DHT22;10115;50.906;4.438;2022-07-23T03:00:07;15.10;99.90
19906;DHT22;10115;50.906;4.438;2022-07-23T03:02:33;15.10;99.90
19906;DHT22;10115;50.906;4.438;2022-07-23T03:04:59;15.10;99.90
19906;DHT22;10115;50.906;4.438;2022-07-23T03:07:25;15.10;99.90
19906;DHT22;10115;50.906;4.438;2022-07-23T03:09:50;15.10;99.90
19906;DHT22;10115;50.906;4.438;2022-07-23T03:12:16;15.10;99.90
19906;DHT22;10115;50.906;4.438;2022-07-23T03:14:42;15.20;99.90
19906;DHT22;10115;50.906;4.438;2022-07-23T03:17:08;15.20;99.90
19906;DHT22;10115;50.906;4.438;2022-07-23T03:19:33;15.10;99.90
19906;DHT22;10115;50.906;4.438;2022-07-23T03:21:59;15.10;99.90
19906;DHT22;10115;50.906;4.438;2022-07-23T03:24:25;15.10;99.90
19906;DHT22;10115;50.906;4.438;2022-07-23T03:27:10;15.00;99.90
19906;DHT22;10115;50.906;4.438;2022-07-23T03:29:36;15.20;99.90
19906;DHT22;10115;50.906;4.438;2022-07-23T03:32:03;15.10;99.90
19906;DHT22;10115;50.906;4.438;2022-07-23T03:34:29;15.10;99.90
19906;DHT22;10115;50.906;4.438;2022-07-23T03:36:55;15.10;99.90
19906;DHT22;10115;50.906;4.438;2022-07-23T03:39:20;15.10;99.90
19906;DHT22;10115;50.906;4.438;2022-07-23T03:41:46;15.20;99.90
19906;DHT22;10115;50.906;4.438;2022-07-23T03:44:12;15.10;99.90
19906;DHT22;10115;50.906;4.438;2022-07-23T03:46:37;15.20;99.90
19906;DHT22;10115;50.906;4.438;2022-07-23T03:49:03;15.10;99.90
19906;DHT22;10115;50.906;4.438;2022-07-23T03:51:29;15.20;99.90
19906;DHT22;10115;50.906;4.438;2022-07-23T03:53:54;15.20;99.90
19906;DHT22;10115;50.906;4.438;2022-07-23T03:56:21;15.20;99.90
19906;DHT22;10115;50.906;4.438;2022-07-23T03:58:46;15.20;99.90
19906;DHT22;10115;50.906;4.438;2022-07-23T04:01:12;15.10;99.90
19906;DHT22;10115;50.906;4.438;2022-07-23T04:03:38;15.10;99.90
19906;DHT22;10115;50.906;4.438;2022-07-23T04:06:04;15.00;99.90
19906;DHT22;10115;50.906;4.438;2022-07-23T04:08:30;15.00;99.90
19906;DHT22;10115;50.906;4.438;2022-07-23T04:10:56;15.00;99.90
19906;DHT22;10115;50.906;4.438;2022-07-23T04:13:21;15.00;99.90
19906;DHT22;10115;50.906;4.438;2022-07-23T04:15:47;15.00;99.90
19906;DHT22;10115;50.906;4.438;2022-07-23T04:18:13;15.00;99.90
19906;DHT22;10115;50.906;4.438;2022-07-23T04:20:39;15.00;99.90
19906;DHT22;10115;50.906;4.438;2022-07-23T04:23:04;15.10;99.90
19906;DHT22;10115;50.906;4.438;2022-07-23T04:25:30;15.10;99.90
19906;DHT22;10115;50.906;4.438;2022-07-23T04:27:56;15.20;99.90
19906;DHT22;10115;50.906;4.438;2022-07-23T04:30:21;15.20;99.90
19906;DHT22;10115;50.906;4.438;2022-07-23T04:32:47;15.10;99.90
19906;DHT22;10115;50.906;4.438;2022-07-23T04:35:13;15.10;99.90
19906;DHT22;10115;50.906;4.438;2022-07-23T04:37:38;15.20;99.90
19906;DHT22;10115;50.906;4.438;2022-07-23T04:40:04;15.20;99.90
19906;DHT22;10115;50.906;4.438;2022-07-23T04:42:30;15.30;99.90
19906;DHT22;10115;50.906;4.438;2022-07-23T04:44:56;15.40;99.90
19906;DHT22;10115;50.906;4.438;2022-07-23T04:47:21;15.60;99.90
19906;DHT22;10115;50.906;4.438;2022-07-23T04:49:47;15.70;99.90
19906;DHT22;10115;50.906;4.438;2022-07-23T04:52:13;15.80;99.90
19906;DHT22;10115;50.906;4.438;2022-07-23T04:54:40;15.90;99.90
19906;DHT22;10115;50.906;4.438;2022-07-23T04:57:06;15.90;99.90
19906;DHT22;10115;50.906;4.438;2022-07-23T04:59:32;15.80;99.90
19906;DHT22;10115;50.906;4.438;2022-07-23T05:01:57;15.90;99.90
19906;DHT22;10115;50.906;4.438;2022-07-23T05:04:23;15.90;99.90
19906;DHT22;10115;50.906;4.438;2022-07-23T05:06:49;16.00;99.90
19906;DHT22;10115;50.906;4.438;2022-07-23T05:09:14;15.90;99.90
19906;DHT22;10115;50.906;4.438;2022-07-23T05:11:40;16.00;99.90
19906;DHT22;10115;50.906;4.438;2022-07-23T05:14:06;15.80;99.90
19906;DHT22;10115;50.906;4.438;2022-07-23T05:16:32;15.90;99.90
19906;DHT22;10115;50.906;4.438;2022-07-23T05:18:57;15.80;99.90
19906;DHT22;10115;50.906;4.438;2022-07-23T05:21:23;15.90;99.90
19906;DHT22;10115;50.906;4.438;2022-07-23T05:23:48;15.90;99.90
19906;DHT22;10115;50.906;4.438;2022-07-23T05:26:14;16.00;99.90
19906;DHT22;10115;50.906;4.438;2022-07-23T05:28:40;16.20;99.90
19906;DHT22;10115;50.906;4.438;2022-07-23T05:31:05;16.40;99.90
19906;DHT22;10115;50.906;4.438;2022-07-23T05:33:31;16.70;99.90
19906;DHT22;10115;50.906;4.438;2022-07-23T05:36:01;17.00;99.90
19906;DHT22;10115;50.906;4.438;2022-07-23T05:38:28;17.30;99.90
19906;DHT22;10115;50.906;4.438;2022-07-23T05:40:53;17.60;99.90
19906;DHT22;10115;50.906;4.438;2022-07-23T05:43:19;17.70;99.90
19906;DHT22;10115;50.906;4.438;2022-07-23T05:45:45;17.60;99.90
19906;DHT22;10115;50.906;4.438;2022-07-23T05:48:10;17.50;99.90
19906;DHT22;10115;50.906;4.438;2022-07-23T05:50:36;17.50;99.90
19906;DHT22;10115;50.906;4.438;2022-07-23T05:53:02;17.60;99.90
19906;DHT22;10115;50.906;4.438;2022-07-23T05:55:28;17.50;99.90
19906;DHT22;10115;50.906;4.438;2022-07-23T05:57:56;17.60;99.90
19906;DHT22;10115;50.906;4.438;2022-07-23T06:00:22;17.90;99.90
19906;DHT22;10115;50.906;4.438;2022-07-23T06:02:47;17.90;99.90
19906;DHT22;10115;50.906;4.438;2022-07-23T06:05:13;18.10;99.90
19906;DHT22;10115;50.906;4.438;2022-07-23T06:07:38;17.70;99.90
19906;DHT22;10115;50.906;4.438;2022-07-23T06:10:05;17.30;99.90
19906;DHT22;10115;50.906;4.438;2022-07-23T06:12:30;17.30;99.90
19906;DHT22;10115;50.906;4.438;2022-07-23T06:14:56;17.50;99.90
19906;DHT22;10115;50.906;4.438;2022-07-23T06:17:22;17.70;99.90
19906;DHT22;10115;50.906;4.438;2022-07-23T06:19:48;17.80;99.90
19906;DHT22;10115;50.906;4.438;2022-07-23T06:22:13;18.00;99.90
19906;DHT22;10115;50.906;4.438;2022-07-23T06:24:39;18.30;99.90
19906;DHT22;10115;50.906;4.438;2022-07-23T06:27:05;18.70;99.90
19906;DHT22;10115;50.906;4.438;2022-07-23T06:29:30;19.10;99.90
19906;DHT22;10115;50.906;4.438;2022-07-23T06:31:56;19.30;99.90
19906;DHT22;10115;50.906;4.438;2022-07-23T06:34:22;19.00;99.90
19906;DHT22;10115;50.906;4.438;2022-07-23T06:36:47;18.90;99.90
19906;DHT22;10115;50.906;4.438;2022-07-23T06:39:13;18.90;99.90
19906;DHT22;10115;50.906;4.438;2022-07-23T06:41:39;19.00;99.90
19906;DHT22;10115;50.906;4.438;2022-07-23T06:44:04;19.00;99.90
19906;DHT22;10115;50.906;4.438;2022-07-23T06:46:30;19.20;99.90
19906;DHT22;10115;50.906;4.438;2022-07-23T06:48:56;19.20;99.90
19906;DHT22;10115;50.906;4.438;2022-07-23T06:51:22;19.30;99.90
19906;DHT22;10115;50.906;4.438;2022-07-23T06:53:47;19.30;99.90
19906;DHT22;10115;50.906;4.438;2022-07-23T06:56:13;19.10;99.90
19906;DHT22;10115;50.906;4.438;2022-07-23T06:58:39;19.00;99.90
19906;DHT22;10115;50.906;4.438;2022-07-23T07:01:04;19.10;99.90
19906;DHT22;10115;50.906;4.438;2022-07-23T07:03:30;19.50;99.90
19906;DHT22;10115;50.906;4.438;2022-07-23T07:05:55;19.80;99.90
19906;DHT22;10115;50.906;4.438;2022-07-23T07:08:23;19.90;99.90
19906;DHT22;10115;50.906;4.438;2022-07-23T07:10:49;20.00;99.90
19906;DHT22;10115;50.906;4.438;2022-07-23T07:13:15;20.20;99.90
19906;DHT22;10115;50.906;4.438;2022-07-23T07:15:40;20.20;99.90
19906;DHT22;10115;50.906;4.438;2022-07-23T07:18:06;20.00;99.90
19906;DHT22;10115;50.906;4.438;2022-07-23T07:20:32;20.10;99.90
19906;DHT22;10115;50.906;4.438;2022-07-23T07:22:57;20.50;99.90
19906;DHT22;10115;50.906;4.438;2022-07-23T07:25:23;20.60;99.90
19906;DHT22;10115;50.906;4.438;2022-07-23T07:27:49;20.60;99.90
19906;DHT22;10115;50.906;4.438;2022-07-23T07:30:14;20.90;99.90
19906;DHT22;10115;50.906;4.438;2022-07-23T07:32:41;21.10;99.90
19906;DHT22;10115;50.906;4.438;2022-07-23T07:35:07;21.10;99.90
19906;DHT22;10115;50.906;4.438;2022-07-23T07:37:33;21.10;99.90
19906;DHT22;10115;50.906;4.438;2022-07-23T07:39:58;21.20;99.90
19906;DHT22;10115;50.906;4.438;2022-07-23T07:42:24;21.30;99.90
19906;DHT22;10115;50.906;4.438;2022-07-23T07:44:50;21.40;99.90
19906;DHT22;10115;50.906;4.438;2022-07-23T07:47:16;21.20;99.90
19906;DHT22;10115;50.906;4.438;2022-07-23T07:49:42;21.50;99.90
19906;DHT22;10115;50.906;4.438;2022-07-23T07:52:09;21.40;99.90
19906;DHT22;10115;50.906;4.438;2022-07-23T07:54:35;21.30;99.90
19906;DHT22;10115;50.906;4.438;2022-07-23T07:57:01;21.30;99.90
19906;DHT22;10115;50.906;4.438;2022-07-23T07:59:26;21.50;99.90
19906;DHT22;10115;50.906;4.438;2022-07-23T08:01:52;21.60;99.90
19906;DHT22;10115;50.906;4.438;2022-07-23T08:04:18;21.90;99.90
19906;DHT22;10115;50.906;4.438;2022-07-23T08:06:44;21.80;99.90
19906;DHT22;10115;50.906;4.438;2022-07-23T08:09:09;21.70;99.90
19906;DHT22;10115;50.906;4.438;2022-07-23T08:11:35;21.70;99.90
19906;DHT22;10115;50.906;4.438;2022-07-23T08:14:01;21.20;99.90
19906;DHT22;10115;50.906;4.438;2022-07-23T08:16:27;21.50;99.90
19906;DHT22;10115;50.906;4.438;2022-07-23T08:18:52;21.90;99.90
19906;DHT22;10115;50.906;4.438;2022-07-23T08:21:18;21.60;99.90
19906;DHT22;10115;50.906;4.438;2022-07-23T08:23:44;21.40;99.90
19906;DHT22;10115;50.906;4.438;2022-07-23T08:26:09;21.20;99.90
19906;DHT22;10115;50.906;4.438;2022-07-23T08:28:35;21.60;99.90
19906;DHT22;10115;50.906;4.438;2022-07-23T08:31:01;21.90;99.90
19906;DHT22;10115;50.906;4.438;2022-07-23T08:33:27;22.00;99.90
19906;DHT22;10115;50.906;4.438;2022-07-23T08:35:53;22.30;99.90
19906;DHT22;10115;50.906;4.438;2022-07-23T08:38:21;22.00;99.90
19906;DHT22;10115;50.906;4.438;2022-07-23T08:40:50;22.30;99.90
19906;DHT22;10115;50.906;4.438;2022-07-23T08:43:21;22.60;99.90
19906;DHT22;10115;50.906;4.438;2022-07-23T08:45:52;22.90;99.90
19906;DHT22;10115;50.906;4.438;2022-07-23T08:48:20;22.40;99.90
19906;DHT22;10115;50.906;4.438;2022-07-23T08:50:53;22.50;99.90
19906;DHT22;10115;50.906;4.438;2022-07-23T08:53:20;22.50;99.90
19906;DHT22;10115;50.906;4.438;2022-07-23T08:55:48;22.40;99.90
19906;DHT22;10115;50.906;4.438;2022-07-23T08:58:14;23.00;99.90
19906;DHT22;10115;50.906;4.438;2022-07-23T09:00:41;22.90;99.90
19906;DHT22;10115;50.906;4.438;2022-07-23T09:03:07;22.40;99.90
19906;DHT22;10115;50.906;4.438;2022-07-23T09:05:33;22.50;99.90
19906;DHT22;10115;50.906;4.438;2022-07-23T09:10:51;23.20;99.90
19906;DHT22;10115;50.906;4.438;2022-07-23T09:16:09;23.70;99.90
19906;DHT22;10115;50.906;4.438;2022-07-23T09:18:54;23.90;99.90
19906;DHT22;10115;50.906;4.438;2022-07-23T09:21:24;23.60;99.90
19906;DHT22;10115;50.906;4.438;2022-07-23T09:23:53;23.70;99.90
19906;DHT22;10115;50.906;4.438;2022-07-23T09:26:35;23.70;99.90
19906;DHT22;10115;50.906;4.438;2022-07-23T09:29:06;24.00;99.90
19906;DHT22;10115;50.906;4.438;2022-07-23T09:31:55;24.10;99.90
19906;DHT22;10115;50.906;4.438;2022-07-23T09:34:32;24.30;99.90
19906;DHT22;10115;50.906;4.438;2022-07-23T09:37:15;23.80;99.90
19906;DHT22;10115;50.906;4.438;2022-07-23T09:39:42;23.60;99.90
19906;DHT22;10115;50.906;4.438;2022-07-23T09:42:18;23.40;99.90
19906;DHT22;10115;50.906;4.438;2022-07-23T09:44:48;22.90;99.90
19906;DHT22;10115;50.906;4.438;2022-07-23T09:47:15;23.30;99.90
19906;DHT22;10115;50.906;4.438;2022-07-23T09:52:32;24.00;99.90
19906;DHT22;10115;50.906;4.438;2022-07-23T09:55:08;24.10;99.90
19906;DHT22;10115;50.906;4.438;2022-07-23T09:57:34;24.30;99.90
19906;DHT22;10115;50.906;4.438;2022-07-23T10:00:09;24.70;99.90
19906;DHT22;10115;50.906;4.438;2022-07-23T10:02:36;24.70;99.90
19906;DHT22;10115;50.906;4.438;2022-07-23T10:05:04;24.60;99.90
19906;DHT22;10115;50.906;4.438;2022-07-23T10:07:33;24.40;99.90
19906;DHT22;10115;50.906;4.438;2022-07-23T10:10:00;24.90;99.90
19906;DHT22;10115;50.906;4.438;2022-07-23T10:12:26;24.90;99.90
19906;DHT22;10115;50.906;4.438;2022-07-23T10:15:00;24.90;99.90
19906;DHT22;10115;50.906;4.438;2022-07-23T10:17:28;24.90;99.90
19906;DHT22;10115;50.906;4.438;2022-07-23T10:19:54;24.90;99.90
19906;DHT22;10115;50.906;4.438;2022-07-23T10:22:35;24.80;99.90
19906;DHT22;10115;50.906;4.438;2022-07-23T10:33:56;25.00;99.90
19906;DHT22;10115;50.906;4.438;2022-07-23T10:36:32;25.10;99.90
19906;DHT22;10115;50.906;4.438;2022-07-23T10:39:10;25.20;99.90
19906;DHT22;10115;50.906;4.438;2022-07-23T10:41:41;25.50;99.90
19906;DHT22;10115;50.906;4.438;2022-07-23T10:46:53;25.00;99.90
19906;DHT22;10115;50.906;4.438;2022-07-23T10:49:30;25.20;99.90
19906;DHT22;10115;50.906;4.438;2022-07-23T10:54:44;25.60;99.90
19906;DHT22;10115;50.906;4.438;2022-07-23T10:57:11;26.00;99.90
19906;DHT22;10115;50.906;4.438;2022-07-23T11:02:25;26.10;99.90
19906;DHT22;10115;50.906;4.438;2022-07-23T11:04:52;26.00;99.90
19906;DHT22;10115;50.906;4.438;2022-07-23T11:07:18;25.70;99.90
19906;DHT22;10115;50.906;4.438;2022-07-23T11:09:44;24.90;99.90
19906;DHT22;10115;50.906;4.438;2022-07-23T11:15:15;24.70;99.90
19906;DHT22;10115;50.906;4.438;2022-07-23T11:27:51;24.50;99.90
19906;DHT22;10115;50.906;4.438;2022-07-23T11:30:46;24.50;99.90
19906;DHT22;10115;50.906;4.438;2022-07-23T11:35:43;24.40;99.90
19906;DHT22;10115;50.906;4.438;2022-07-23T11:38:20;24.40;99.90
19906;DHT22;10115;50.906;4.438;2022-07-23T11:40:56;24.40;99.90
19906;DHT22;10115;50.906;4.438;2022-07-23T11:43:24;24.70;99.90
19906;DHT22;10115;50.906;4.438;2022-07-23T11:45:53;24.60;99.90
19906;DHT22;10115;50.906;4.438;2022-07-23T11:48:24;24.80;99.90
19906;DHT22;10115;50.906;4.438;2022-07-23T11:50:52;25.20;99.90
19906;DHT22;10115;50.906;4.438;2022-07-23T11:53:36;25.50;99.90
19906;DHT22;10115;50.906;4.438;2022-07-23T11:56:07;25.80;99.90
19906;DHT22;10115;50.906;4.438;2022-07-23T11:58:33;26.00;99.90
19906;DHT22;10115;50.906;4.438;2022-07-23T12:00:59;26.20;99.90
19906;DHT22;10115;50.906;4.438;2022-07-23T12:03:25;26.10;99.90
19906;DHT22;10115;50.906;4.438;2022-07-23T12:05:56;26.60;99.90
19906;DHT22;10115;50.906;4.438;2022-07-23T12:08:22;26.10;99.90
19906;DHT22;10115;50.906;4.438;2022-07-23T12:10:48;26.40;99.90
19906;DHT22;10115;50.906;4.438;2022-07-23T12:13:16;26.50;99.90
19906;DHT22;10115;50.906;4.438;2022-07-23T12:15:50;26.80;99.90
19906;DHT22;10115;50.906;4.438;2022-07-23T12:18:21;26.40;99.90
19906;DHT22;10115;50.906;4.438;2022-07-23T12:20:50;25.90;99.90
19906;DHT22;10115;50.906;4.438;2022-07-23T12:23:18;26.00;99.90
19906;DHT22;10115;50.906;4.438;2022-07-23T12:25:45;26.70;99.90
19906;DHT22;10115;50.906;4.438;2022-07-23T12:28:17;27.20;99.90
19906;DHT22;10115;50.906;4.438;2022-07-23T12:30:48;27.40;99.90
19906;DHT22;10115;50.906;4.438;2022-07-23T12:33:36;26.70;99.90
19906;DHT22;10115;50.906;4.438;2022-07-23T12:36:11;26.40;99.90
19906;DHT22;10115;50.906;4.438;2022-07-23T12:38:42;27.10;99.90
19906;DHT22;10115;50.906;4.438;2022-07-23T12:41:09;27.10;99.90
19906;DHT22;10115;50.906;4.438;2022-07-23T12:43:40;27.30;99.90
19906;DHT22;10115;50.906;4.438;2022-07-23T12:46:20;27.10;99.90
19906;DHT22;10115;50.906;4.438;2022-07-23T12:51:30;28.20;99.90
19906;DHT22;10115;50.906;4.438;2022-07-23T12:54:04;28.10;99.90
19906;DHT22;10115;50.906;4.438;2022-07-23T12:56:31;28.50;99.90
19906;DHT22;10115;50.906;4.438;2022-07-23T12:59:09;28.70;99.90
19906;DHT22;10115;50.906;4.438;2022-07-23T13:01:44;28.60;99.90
19906;DHT22;10115;50.906;4.438;2022-07-23T13:04:15;28.80;99.90
19906;DHT22;10115;50.906;4.438;2022-07-23T13:06:42;29.20;99.90
19906;DHT22;10115;50.906;4.438;2022-07-23T13:09:10;29.80;99.90
19906;DHT22;10115;50.906;4.438;2022-07-23T13:11:38;29.60;99.90
19906;DHT22;10115;50.906;4.438;2022-07-23T13:14:03;29.70;99.90
19906;DHT22;10115;50.906;4.438;2022-07-23T13:16:30;30.40;99.90
19906;DHT22;10115;50.906;4.438;2022-07-23T13:18:57;30.10;99.90
19906;DHT22;10115;50.906;4.438;2022-07-23T13:21:23;29.10;99.90
19906;DHT22;10115;50.906;4.438;2022-07-23T13:23:49;27.80;99.90
19906;DHT22;10115;50.906;4.438;2022-07-23T13:26:15;27.00;99.90
19906;DHT22;10115;50.906;4.438;2022-07-23T13:28:41;27.40;99.90
19906;DHT22;10115;50.906;4.438;2022-07-23T13:31:07;28.60;99.90
19906;DHT22;10115;50.906;4.438;2022-07-23T13:33:33;28.30;99.90
19906;DHT22;10115;50.906;4.438;2022-07-23T13:35:59;27.60;99.90
19906;DHT22;10115;50.906;4.438;2022-07-23T13:38:25;27.50;99.90
19906;DHT22;10115;50.906;4.438;2022-07-23T13:40:52;27.40;99.90
19906;DHT22;10115;50.906;4.438;2022-07-23T13:43:21;26.90;99.90
19906;DHT22;10115;50.906;4.438;2022-07-23T13:45:47;27.00;99.90
19906;DHT22;10115;50.906;4.438;2022-07-23T13:48:14;28.20;99.90
19906;DHT22;10115;50.906;4.438;2022-07-23T13:50:42;27.60;99.90
19906;DHT22;10115;50.906;4.438;2022-07-23T13:53:10;26.70;99.90
19906;DHT22;10115;50.906;4.438;2022-07-23T13:55:37;26.80;99.90
19906;DHT22;10115;50.906;4.438;2022-07-23T13:58:04;26.70;99.90
19906;DHT22;10115;50.906;4.438;2022-07-23T14:00:31;27.50;99.90
19906;DHT22;10115;50.906;4.438;2022-07-23T14:02:58;28.40;99.90
19906;DHT22;10115;50.906;4.438;2022-07-23T14:05:24;30.10;99.90
19906;DHT22;10115;50.906;4.438;2022-07-23T14:07:50;31.70;99.90
19906;DHT22;10115;50.906;4.438;2022-07-23T14:10:19;29.80;99.90
19906;DHT22;10115;50.906;4.438;2022-07-23T14:12:46;30.30;99.90
19906;DHT22;10115;50.906;4.438;2022-07-23T14:15:12;31.90;99.90
19906;DHT22;10115;50.906;4.438;2022-07-23T14:17:40;33.30;99.90
19906;DHT22;10115;50.906;4.438;2022-07-23T14:20:07;33.90;99.90
19906;DHT22;10115;50.906;4.438;2022-07-23T14:22:33;32.40;99.90
19906;DHT22;10115;50.906;4.438;2022-07-23T14:24:59;30.80;99.90
19906;DHT22;10115;50.906;4.438;2022-07-23T14:27:26;29.40;99.90
19906;DHT22;10115;50.906;4.438;2022-07-23T14:29:54;28.70;99.90
19906;DHT22;10115;50.906;4.438;2022-07-23T14:32:20;29.00;99.90
19906;DHT22;10115;50.906;4.438;2022-07-23T14:34:46;29.00;99.90
19906;DHT22;10115;50.906;4.438;2022-07-23T14:37:11;28.80;99.90
19906;DHT22;10115;50.906;4.438;2022-07-23T14:39:39;27.50;99.90
19906;DHT22;10115;50.906;4.438;2022-07-23T14:42:05;27.00;99.90
19906;DHT22;10115;50.906;4.438;2022-07-23T14:44:32;26.80;99.90
19906;DHT22;10115;50.906;4.438;2022-07-23T14:46:57;27.10;99.90
19906;DHT22;10115;50.906;4.438;2022-07-23T14:49:23;27.70;99.90
19906;DHT22;10115;50.906;4.438;2022-07-23T14:51:49;27.80;99.90
19906;DHT22;10115;50.906;4.438;2022-07-23T14:54:15;28.20;99.90
19906;DHT22;10115;50.906;4.438;2022-07-23T14:56:41;28.70;99.90
19906;DHT22;10115;50.906;4.438;2022-07-23T14:59:07;29.40;99.90
19906;DHT22;10115;50.906;4.438;2022-07-23T15:01:34;30.00;99.90
19906;DHT22;10115;50.906;4.438;2022-07-23T15:03:59;31.30;99.90
19906;DHT22;10115;50.906;4.438;2022-07-23T15:06:25;31.80;99.90
19906;DHT22;10115;50.906;4.438;2022-07-23T15:08:51;32.70;99.90
19906;DHT22;10115;50.906;4.438;2022-07-23T15:11:17;31.40;99.90
19906;DHT22;10115;50.906;4.438;2022-07-23T15:13:43;33.80;99.90
19906;DHT22;10115;50.906;4.438;2022-07-23T15:16:09;35.60;99.90
19906;DHT22;10115;50.906;4.438;2022-07-23T15:18:35;35.40;99.90
19906;DHT22;10115;50.906;4.438;2022-07-23T15:21:01;34.90;99.90
19906;DHT22;10115;50.906;4.438;2022-07-23T15:23:27;35.40;99.90
19906;DHT22;10115;50.906;4.438;2022-07-23T15:25:55;34.50;99.90
19906;DHT22;10115;50.906;4.438;2022-07-23T15:28:21;33.30;99.90
19906;DHT22;10115;50.906;4.438;2022-07-23T15:30:46;31.60;99.90
19906;DHT22;10115;50.906;4.438;2022-07-23T15:33:12;33.40;99.90
19906;DHT22;10115;50.906;4.438;2022-07-23T15:35:38;35.60;99.90
19906;DHT22;10115;50.906;4.438;2022-07-23T15:38:04;36.70;98.80
19906;DHT22;10115;50.906;4.438;2022-07-23T15:40:29;32.20;99.90
19906;DHT22;10115;50.906;4.438;2022-07-23T15:42:55;31.60;99.90
19906;DHT22;10115;50.906;4.438;2022-07-23T15:45:21;32.50;99.90
19906;DHT22;10115;50.906;4.438;2022-07-23T15:47:48;33.20;99.80
19906;DHT22;10115;50.906;4.438;2022-07-23T15:50:14;32.80;99.90
19906;DHT22;10115;50.906;4.438;2022-07-23T15:52:40;33.20;99.90
19906;DHT22;10115;50.906;4.438;2022-07-23T15:55:07;33.50;99.90
19906;DHT22;10115;50.906;4.438;2022-07-23T15:57:33;33.20;99.90
19906;DHT22;10115;50.906;4.438;2022-07-23T15:59:59;34.60;99.90
19906;DHT22;10115;50.906;4.438;2022-07-23T16:02:25;34.10;98.90
19906;DHT22;10115;50.906;4.438;2022-07-23T16:04:51;36.00;99.80
19906;DHT22;10115;50.906;4.438;2022-07-23T16:07:18;35.90;97.50
19906;DHT22;10115;50.906;4.438;2022-07-23T16:09:44;35.10;96.70
19906;DHT22;10115;50.906;4.438;2022-07-23T16:12:10;36.40;95.70
19906;DHT22;10115;50.906;4.438;2022-07-23T16:14:36;37.40;94.60